Time;durP1;ratioP1;P1;durP2;ratioP2;P2;SDS_P1;SDS_P2;PMS_P1;PMS_P2;Temp;Humidity;BMP_temperature;BMP_pressure;BME280_temperature;BME280_humidity;BME280_pressure;Samples;Min_cycle;Max_cycle;Signal;HPM_P1;HPM_P2
2023/09/07 00:02:22;;;;;;;3.15;1.63;;;26.70;73.80;;;;;;5053915;28;20033;-83
2023/09/07 00:04:47;;;;;;;3.05;1.75;;;26.70;73.90;;;;;;5054126;28;20035;-83
2023/09/07 00:07:13;;;;;;;2.45;1.58;;;26.70;74.10;;;;;;5053589;28;20061;-82
2023/09/07 00:09:39;;;;;;;3.42;1.33;;;26.60;74.10;;;;;;5053513;28;20059;-83
2023/09/07 00:12:05;;;;;;;2.72;1.65;;;26.70;74.50;;;;;;5053777;28;20461;-83
2023/09/07 00:14:30;;;;;;;3.72;1.50;;;26.60;74.70;;;;;;5054398;28;20036;-83
2023/09/07 00:16:57;;;;;;;1.63;1.25;;;26.60;74.90;;;;;;5053934;28;20044;-82
2023/09/07 00:19:22;;;;;;;3.08;1.83;;;26.60;75.00;;;;;;5035858;28;20124;-83
2023/09/07 00:21:48;;;;;;;2.03;1.50;;;26.70;75.20;;;;;;5054090;28;20083;-83
2023/09/07 00:24:16;;;;;;;1.83;1.40;;;26.70;75.30;;;;;;5053353;28;20037;-83
2023/09/07 00:26:41;;;;;;;3.38;1.50;;;26.70;75.20;;;;;;5052788;28;20029;-83
2023/09/07 00:29:07;;;;;;;2.60;1.27;;;26.70;75.10;;;;;;5036016;28;20032;-83
2023/09/07 00:31:33;;;;;;;3.90;2.03;;;26.70;74.90;;;;;;5053305;28;20381;-83
2023/09/07 00:33:59;;;;;;;3.45;1.75;;;26.70;74.70;;;;;;5053218;28;20025;-83
2023/09/07 00:36:24;;;;;;;3.38;1.55;;;26.70;74.50;;;;;;5035647;28;20033;-83
2023/09/07 00:38:50;;;;;;;2.22;1.63;;;26.60;74.60;;;;;;5052096;28;20072;-84
2023/09/07 00:41:16;;;;;;;6.10;1.58;;;26.60;75.00;;;;;;5053262;28;20112;-83
2023/09/07 00:43:41;;;;;;;3.45;1.90;;;26.60;74.80;;;;;;5053181;28;20025;-84
2023/09/07 00:46:08;;;;;;;2.55;1.55;;;26.60;74.40;;;;;;5054012;28;20025;-83
2023/09/07 00:48:33;;;;;;;1.55;1.45;;;26.50;74.60;;;;;;5053504;28;20029;-83
2023/09/07 00:51:00;;;;;;;3.15;1.77;;;26.40;74.90;;;;;;5052296;28;20036;-83
2023/09/07 00:53:27;;;;;;;3.63;1.83;;;26.40;75.30;;;;;;5051873;28;20037;-83
2023/09/07 00:55:55;;;;;;;9.85;2.47;;;26.40;75.40;;;;;;5051907;28;20120;-83
2023/09/07 00:58:21;;;;;;;1.80;1.52;;;26.40;75.10;;;;;;5035935;28;20061;-83
2023/09/07 01:00:48;;;;;;;4.88;2.50;;;26.30;75.20;;;;;;5053267;28;20037;-83
2023/09/07 01:03:14;;;;;;;3.22;2.25;;;26.20;75.30;;;;;;5053418;28;20068;-83
2023/09/07 01:06:03;;;;;;;5.63;2.05;;;26.20;75.20;;;;;;5035486;28;20025;-83
2023/09/07 01:08:38;;;;;;;2.90;2.10;;;26.20;75.40;;;;;;5052608;28;20458;-83
2023/09/07 01:11:15;;;;;;;3.60;1.98;;;26.00;75.50;;;;;;5056943;28;20385;-84
2023/09/07 01:13:42;;;;;;;5.15;2.00;;;26.00;75.50;;;;;;5057112;28;20462;-84
2023/09/07 01:16:09;;;;;;;3.28;2.42;;;25.90;75.60;;;;;;5057403;28;20070;-84
2023/09/07 01:18:37;;;;;;;3.90;1.90;;;25.90;75.90;;;;;;5056634;28;20060;-83
2023/09/07 01:21:08;;;;;;;4.57;2.13;;;25.80;75.90;;;;;;5056593;28;20029;-83
2023/09/07 01:23:37;;;;;;;2.03;1.83;;;25.70;76.00;;;;;;5057011;28;20060;-84
2023/09/07 01:26:05;;;;;;;3.67;2.03;;;25.70;76.40;;;;;;5055519;28;20104;-83
2023/09/07 01:28:31;;;;;;;4.00;2.03;;;25.70;76.40;;;;;;5057204;28;20037;-82
2023/09/07 01:30:57;;;;;;;4.50;2.28;;;25.70;76.40;;;;;;5058639;28;20445;-82
2023/09/07 01:33:23;;;;;;;5.70;2.00;;;25.60;76.60;;;;;;5057707;28;20057;-83
2023/09/07 01:35:49;;;;;;;5.03;1.83;;;25.60;76.70;;;;;;5058526;28;20033;-83
2023/09/07 01:38:14;;;;;;;5.38;2.33;;;25.60;76.80;;;;;;5057767;28;20482;-83
2023/09/07 01:40:40;;;;;;;3.78;1.98;;;25.60;76.90;;;;;;5058555;28;20029;-83
2023/09/07 01:43:06;;;;;;;3.60;2.17;;;25.60;77.10;;;;;;5040028;28;20029;-82
2023/09/07 01:45:31;;;;;;;5.55;2.10;;;25.50;77.20;;;;;;5055427;28;20079;-83
2023/09/07 01:47:59;;;;;;;2.80;2.30;;;25.50;77.30;;;;;;5056113;28;20029;-83
2023/09/07 01:50:27;;;;;;;2.97;2.30;;;25.40;77.10;;;;;;5056555;28;20027;-83
2023/09/07 01:52:53;;;;;;;3.90;2.47;;;25.40;77.30;;;;;;5039321;28;20029;-83
2023/09/07 01:55:19;;;;;;;4.25;2.60;;;25.40;77.40;;;;;;5056718;28;20551;-83
2023/09/07 01:57:44;;;;;;;7.45;2.13;;;25.40;77.40;;;;;;5055002;28;20477;-83
2023/09/07 02:00:11;;;;;;;2.70;1.90;;;25.40;77.50;;;;;;5056820;28;20021;-84
2023/09/07 02:02:37;;;;;;;3.08;2.30;;;25.40;77.70;;;;;;5056550;28;20047;-83
2023/09/07 02:05:03;;;;;;;4.03;2.00;;;25.40;77.50;;;;;;5039335;28;20183;-83
2023/09/07 02:07:29;;;;;;;3.47;2.17;;;25.30;77.80;;;;;;5039327;28;20402;-84
2023/09/07 02:09:55;;;;;;;2.10;1.90;;;25.30;78.10;;;;;;5056098;28;20057;-84
2023/09/07 02:12:21;;;;;;;2.33;2.13;;;25.30;77.90;;;;;;5055193;28;20465;-84
2023/09/07 02:14:47;;;;;;;2.83;2.00;;;25.20;78.10;;;;;;5055836;28;20037;-83
2023/09/07 02:17:17;;;;;;;10.85;2.60;;;25.20;78.10;;;;;;5055944;28;20491;-83
2023/09/07 02:19:43;;;;;;;4.63;2.50;;;25.20;77.80;;;;;;5038380;28;20049;-83
2023/09/07 02:22:09;;;;;;;2.22;1.55;;;25.20;77.90;;;;;;5054893;28;20108;-84
2023/09/07 02:24:35;;;;;;;5.55;1.80;;;25.20;78.20;;;;;;5055817;28;20462;-83
2023/09/07 02:27:01;;;;;;;2.53;2.00;;;25.20;78.40;;;;;;5054358;28;20037;-83
2023/09/07 02:29:27;;;;;;;3.65;1.85;;;25.20;78.40;;;;;;5055982;28;20373;-82
2023/09/07 02:31:52;;;;;;;1.83;1.58;;;25.20;78.00;;;;;;5054448;28;20381;-83
2023/09/07 02:34:18;;;;;;;2.30;1.70;;;25.20;78.40;;;;;;5037986;28;20033;-83
2023/09/07 02:36:44;;;;;;;3.45;2.63;;;25.20;78.40;;;;;;5055416;28;20098;-85
2023/09/07 02:39:11;;;;;;;3.35;2.25;;;25.20;77.90;;;;;;5037669;28;20029;-84
2023/09/07 02:41:38;;;;;;;3.70;1.73;;;25.10;78.00;;;;;;5055687;28;20060;-84
2023/09/07 02:44:04;;;;;;;2.33;1.90;;;25.10;78.60;;;;;;5054215;28;20036;-83
2023/09/07 02:46:30;;;;;;;2.20;1.70;;;25.10;78.40;;;;;;5055275;28;20029;-83
2023/09/07 02:48:57;;;;;;;2.40;2.10;;;25.10;78.50;;;;;;5054954;28;20025;-83
2023/09/07 02:51:24;;;;;;;3.50;2.10;;;25.10;78.50;;;;;;5054369;28;20100;-84
2023/09/07 02:53:50;;;;;;;3.33;2.00;;;25.10;78.10;;;;;;5055213;28;20070;-84
2023/09/07 02:56:16;;;;;;;4.38;2.25;;;25.10;78.00;;;;;;5055138;28;20060;-84
2023/09/07 02:58:41;;;;;;;2.40;1.80;;;25.10;78.20;;;;;;5055124;28;20033;-84
2023/09/07 03:01:10;;;;;;;3.08;2.35;;;25.00;78.20;;;;;;5054052;28;20523;-84
2023/09/07 03:03:36;;;;;;;3.60;2.20;;;25.00;78.80;;;;;;5036934;28;20060;-85
2023/09/07 03:06:13;;;;;;;5.32;2.30;;;25.10;78.70;;;;;;5054745;28;20033;-84
2023/09/07 03:08:39;;;;;;;2.40;2.13;;;25.00;78.10;;;;;;5053614;28;20041;-83
2023/09/07 03:11:06;;;;;;;2.03;1.65;;;25.00;78.30;;;;;;5054592;28;20044;-84
2023/09/07 03:13:32;;;;;;;2.38;1.92;;;25.00;78.60;;;;;;5054805;28;20021;-84
2023/09/07 03:15:58;;;;;;;2.17;1.98;;;25.00;78.60;;;;;;5053988;28;20084;-84
2023/09/07 03:18:24;;;;;;;2.92;2.30;;;25.00;78.60;;;;;;5037216;28;20115;-85
2023/09/07 03:20:50;;;;;;;4.47;3.10;;;25.00;78.30;;;;;;5054463;28;20032;-84
2023/09/07 03:23:16;;;;;;;2.90;2.00;;;25.00;78.00;;;;;;5054757;28;20032;-84
2023/09/07 03:25:42;;;;;;;2.70;2.17;;;24.90;78.30;;;;;;5053427;28;20444;-85
2023/09/07 03:28:07;;;;;;;2.20;2.00;;;24.90;78.30;;;;;;5036665;28;20424;-82
2023/09/07 03:30:33;;;;;;;2.25;1.88;;;24.90;78.70;;;;;;5054051;28;20477;-82
2023/09/07 03:32:59;;;;;;;3.67;2.40;;;24.90;78.50;;;;;;5053735;28;20025;-81
2023/09/07 03:35:25;;;;;;;3.38;3.08;;;24.80;78.60;;;;;;5054268;28;20086;-81
2023/09/07 03:37:51;;;;;;;2.45;1.95;;;24.80;78.50;;;;;;5054202;28;20120;-82
2023/09/07 03:40:17;;;;;;;4.75;2.05;;;24.80;78.80;;;;;;5054064;28;20056;-83
2023/09/07 03:42:45;;;;;;;3.22;2.80;;;24.80;78.90;;;;;;5054676;28;20025;-82
2023/09/07 03:45:11;;;;;;;2.67;2.30;;;24.80;78.40;;;;;;5054220;28;20044;-82
2023/09/07 03:47:37;;;;;;;2.60;1.67;;;24.80;78.60;;;;;;5053748;28;20032;-83
2023/09/07 03:50:03;;;;;;;3.28;2.58;;;24.70;79.10;;;;;;5054114;28;20032;-82
2023/09/07 03:52:29;;;;;;;3.75;2.05;;;24.70;78.50;;;;;;5036130;28;20119;-82
2023/09/07 03:54:56;;;;;;;4.63;2.03;;;24.70;78.50;;;;;;5053788;28;20080;-83
2023/09/07 03:57:22;;;;;;;3.10;2.63;;;24.70;78.60;;;;;;5036129;28;20424;-83
2023/09/07 03:59:48;;;;;;;2.50;2.30;;;24.70;78.50;;;;;;5053987;28;20033;-82
2023/09/07 04:02:14;;;;;;;3.30;2.35;;;24.60;78.40;;;;;;5054185;28;20039;-84
2023/09/07 04:04:40;;;;;;;3.75;2.15;;;24.60;78.60;;;;;;5036404;28;20029;-84
2023/09/07 04:07:06;;;;;;;3.75;2.78;;;24.60;79.50;;;;;;5054262;28;20053;-84
2023/09/07 04:09:32;;;;;;;6.85;2.50;;;24.50;78.30;;;;;;5053829;28;20075;-82
2023/09/07 04:11:57;;;;;;;3.70;2.47;;;24.50;78.30;;;;;;5054268;28;20029;-82
2023/09/07 04:14:23;;;;;;;4.20;2.15;;;24.50;78.40;;;;;;5053800;28;20029;-83
2023/09/07 04:16:50;;;;;;;3.33;2.70;;;24.40;78.90;;;;;;5053956;28;20029;-83
2023/09/07 04:19:16;;;;;;;3.22;2.78;;;24.40;78.70;;;;;;5054354;28;20035;-83
2023/09/07 04:21:42;;;;;;;2.30;1.85;;;24.40;78.70;;;;;;5053687;28;20033;-82
2023/09/07 04:24:07;;;;;;;3.17;2.47;;;24.40;79.00;;;;;;5054471;28;20044;-82
2023/09/07 04:26:33;;;;;;;2.38;1.85;;;24.30;79.00;;;;;;5054537;28;20032;-82
2023/09/07 04:28:59;;;;;;;3.17;2.60;;;24.30;79.20;;;;;;5056840;28;20070;-82
2023/09/07 04:31:27;;;;;;;3.17;2.35;;;24.20;78.90;;;;;;5055296;28;20083;-82
2023/09/07 04:33:53;;;;;;;2.58;2.25;;;24.20;79.00;;;;;;5054116;28;20104;-82
2023/09/07 04:36:19;;;;;;;2.60;2.40;;;24.20;79.30;;;;;;5052353;28;20036;-82
2023/09/07 04:38:45;;;;;;;3.08;2.30;;;24.20;79.70;;;;;;5053120;28;20063;-82
2023/09/07 04:41:12;;;;;;;2.67;2.33;;;24.20;79.60;;;;;;5035688;28;20445;-82
2023/09/07 04:43:45;;;;;;;3.17;2.50;;;24.10;79.50;;;;;;5053127;28;20079;-82
2023/09/07 04:46:14;;;;;;;4.15;3.30;;;24.10;79.20;;;;;;5057135;28;20021;-82
2023/09/07 04:48:41;;;;;;;2.97;2.30;;;24.10;79.30;;;;;;5057557;28;20029;-81
2023/09/07 04:51:08;;;;;;;3.65;2.53;;;24.00;79.50;;;;;;5057770;28;20036;-81
2023/09/07 04:53:37;;;;;;;6.00;2.70;;;23.90;79.70;;;;;;5057699;28;20108;-81
2023/09/07 04:56:04;;;;;;;3.85;2.33;;;23.90;80.10;;;;;;5057305;28;20045;-81
2023/09/07 04:58:30;;;;;;;6.07;2.92;;;23.90;80.30;;;;;;5056898;28;20032;-81
2023/09/07 05:01:02;;;;;;;4.13;2.55;;;23.90;80.20;;;;;;5039392;28;20067;-81
2023/09/07 05:03:28;;;;;;;3.15;2.10;;;23.90;80.30;;;;;;5057665;28;20021;-80
2023/09/07 05:05:54;;;;;;;4.45;2.67;;;23.90;80.80;;;;;;5055706;28;20425;-80
2023/09/07 05:08:21;;;;;;;4.55;3.20;;;23.90;80.60;;;;;;5056812;28;20396;-81
2023/09/07 05:10:47;;;;;;;4.53;2.75;;;23.90;80.60;;;;;;5057037;28;20029;-81
2023/09/07 05:13:13;;;;;;;4.25;2.38;;;23.80;80.60;;;;;;5057090;28;20025;-81
2023/09/07 05:15:48;;;;;;;3.28;2.67;;;23.80;80.30;;;;;;5056912;28;20496;-81
2023/09/07 05:18:14;;;;;;;4.78;2.60;;;23.90;81.00;;;;;;5057015;28;20095;-81
2023/09/07 05:20:39;;;;;;;2.72;2.53;;;23.90;80.80;;;;;;5056801;28;20029;-81
2023/09/07 05:23:05;;;;;;;2.95;2.28;;;23.80;80.50;;;;;;5057243;28;20037;-81
2023/09/07 05:25:31;;;;;;;4.50;2.38;;;23.80;80.90;;;;;;5057168;28;20446;-81
2023/09/07 05:27:56;;;;;;;3.40;2.97;;;23.80;81.00;;;;;;5056531;28;20532;-81
2023/09/07 05:30:22;;;;;;;4.75;2.33;;;23.80;80.50;;;;;;5056890;28;20025;-82
2023/09/07 05:32:48;;;;;;;3.88;2.83;;;23.80;80.60;;;;;;5057440;28;20029;-81
2023/09/07 05:35:16;;;;;;;3.55;2.60;;;23.80;80.30;;;;;;5055627;28;20433;-81
2023/09/07 05:37:42;;;;;;;3.75;3.13;;;23.60;80.40;;;;;;5056393;28;20045;-81
2023/09/07 05:40:08;;;;;;;3.45;2.80;;;23.50;81.00;;;;;;5055581;28;20059;-81
2023/09/07 05:42:34;;;;;;;4.53;2.28;;;23.50;81.70;;;;;;5055216;28;20074;-79
2023/09/07 05:44:59;;;;;;;3.58;2.65;;;23.50;81.50;;;;;;5055277;28;20029;-81
2023/09/07 05:47:26;;;;;;;3.88;2.90;;;23.60;81.00;;;;;;5056141;28;20098;-81
2023/09/07 05:49:52;;;;;;;3.58;2.40;;;23.60;80.70;;;;;;5056308;28;20159;-80
2023/09/07 05:52:18;;;;;;;4.43;2.53;;;23.50;80.90;;;;;;5037924;28;20075;-81
2023/09/07 05:54:43;;;;;;;1.80;1.50;;;23.60;81.00;;;;;;5055955;28;20033;-77
2023/09/07 05:57:09;;;;;;;4.97;2.35;;;23.60;82.40;;;;;;5053384;28;20041;-78
2023/09/07 05:59:35;;;;;;;2.22;1.88;;;23.80;83.30;;;;;;5054870;28;20453;-78
2023/09/07 06:02:00;;;;;;;2.25;1.52;;;23.90;83.40;;;;;;5056224;28;20043;-78
2023/09/07 06:04:26;;;;;;;3.83;1.88;;;24.10;82.90;;;;;;5056340;28;20052;-77
2023/09/07 06:06:52;;;;;;;2.63;2.35;;;24.20;82.30;;;;;;5037819;28;20029;-78
2023/09/07 06:09:17;;;;;;;5.25;2.72;;;24.20;81.20;;;;;;5055514;28;20181;-76
2023/09/07 06:11:43;;;;;;;4.47;2.40;;;24.30;80.90;;;;;;5053943;28;20029;-76
2023/09/07 06:14:09;;;;;;;3.45;2.25;;;24.30;80.70;;;;;;5054174;28;20033;-76
2023/09/07 06:16:35;;;;;;;4.60;3.40;;;24.40;80.50;;;;;;5054329;28;20056;-75
2023/09/07 06:19:00;;;;;;;2.70;2.45;;;24.40;79.40;;;;;;5054371;28;20033;-75
2023/09/07 06:21:26;;;;;;;4.00;2.78;;;24.30;79.40;;;;;;5055287;28;20048;-75
2023/09/07 06:23:52;;;;;;;4.55;2.88;;;24.30;79.70;;;;;;5054085;28;20079;-74
2023/09/07 06:26:19;;;;;;;4.10;2.25;;;24.30;79.70;;;;;;5053911;28;20432;-76
2023/09/07 06:28:44;;;;;;;5.72;2.65;;;24.30;79.80;;;;;;5055733;28;20068;-75
2023/09/07 06:31:10;;;;;;;3.63;3.03;;;24.30;79.30;;;;;;5054881;28;20033;-76
2023/09/07 06:33:36;;;;;;;3.58;2.75;;;24.20;79.20;;;;;;5054966;28;20036;-77
2023/09/07 06:36:02;;;;;;;4.45;2.40;;;24.10;79.80;;;;;;5055442;28;20035;-77
2023/09/07 06:38:28;;;;;;;4.07;3.10;;;24.00;80.20;;;;;;5055176;28;20045;-76
2023/09/07 06:40:54;;;;;;;4.63;2.90;;;24.00;80.40;;;;;;5036968;28;20033;-77
2023/09/07 06:43:19;;;;;;;5.90;3.35;;;24.00;80.20;;;;;;5054903;28;20572;-76
2023/09/07 06:45:46;;;;;;;5.05;3.45;;;23.80;80.50;;;;;;5054987;28;20033;-76
2023/09/07 06:48:12;;;;;;;3.30;2.42;;;23.70;80.30;;;;;;5054904;28;20039;-77
2023/09/07 06:50:38;;;;;;;5.25;3.08;;;23.70;80.90;;;;;;5055034;28;20116;-76
2023/09/07 06:53:03;;;;;;;6.68;3.00;;;23.80;80.70;;;;;;5054981;28;20560;-76
2023/09/07 06:55:30;;;;;;;4.75;3.20;;;23.90;80.60;;;;;;5054384;28;20052;-75
2023/09/07 06:57:55;;;;;;;3.58;2.92;;;24.00;80.80;;;;;;5053600;28;20154;-76
2023/09/07 07:00:21;;;;;;;6.35;3.30;;;24.10;80.60;;;;;;5055045;28;20116;-77
2023/09/07 07:02:47;;;;;;;7.38;3.45;;;24.30;80.00;;;;;;5054421;28;20075;-78
2023/09/07 07:05:13;;;;;;;6.28;3.33;;;24.40;79.50;;;;;;5054727;28;20061;-77
2023/09/07 07:07:39;;;;;;;5.72;3.20;;;24.60;79.50;;;;;;5054517;28;20025;-78
2023/09/07 07:10:06;;;;;;;4.53;2.85;;;24.70;79.30;;;;;;5054896;28;20094;-78
2023/09/07 07:12:37;;;;;;;5.85;2.92;;;24.80;78.60;;;;;;5054409;28;20040;-79
2023/09/07 07:15:04;;;;;;;5.43;4.07;;;24.90;78.40;;;;;;5054090;28;20029;-78
2023/09/07 07:17:30;;;;;;;6.72;3.80;;;24.90;78.10;;;;;;5055385;28;20037;-78
2023/09/07 07:19:55;;;;;;;8.25;4.38;;;24.90;78.40;;;;;;5054497;28;20405;-79
2023/09/07 07:22:21;;;;;;;6.40;2.97;;;24.80;78.00;;;;;;5052857;28;20025;-82
2023/09/07 07:24:47;;;;;;;5.90;4.28;;;24.80;78.10;;;;;;5054100;28;20029;-78
2023/09/07 07:27:13;;;;;;;5.57;3.55;;;24.80;77.50;;;;;;5054275;28;20029;-83
2023/09/07 07:29:38;;;;;;;6.53;3.85;;;24.80;77.60;;;;;;5054089;28;20056;-83
2023/09/07 07:32:04;;;;;;;5.43;3.60;;;24.80;77.90;;;;;;5052954;28;20033;-82
2023/09/07 07:34:30;;;;;;;5.50;3.78;;;24.90;78.00;;;;;;5036626;28;20029;-81
2023/09/07 07:36:56;;;;;;;5.18;4.00;;;24.90;77.20;;;;;;5053537;28;20041;-81
2023/09/07 07:39:21;;;;;;;6.18;3.92;;;24.90;76.90;;;;;;5054187;28;20029;-83
2023/09/07 07:41:47;;;;;;;10.18;4.75;;;25.00;77.00;;;;;;5054091;28;20454;-87
2023/09/07 07:44:13;;;;;;;6.22;4.07;;;25.00;77.80;;;;;;5053295;28;20029;-86
2023/09/07 07:46:38;;;;;;;6.60;3.95;;;24.90;78.10;;;;;;5054021;28;20078;-86
2023/09/07 07:49:04;;;;;;;8.10;3.85;;;24.90;78.10;;;;;;5052683;28;20115;-84
2023/09/07 07:51:30;;;;;;;7.40;3.70;;;24.90;78.80;;;;;;5036090;28;20025;-81
2023/09/07 07:53:56;;;;;;;4.20;3.58;;;24.90;79.20;;;;;;5053142;28;20036;-86
2023/09/07 07:56:23;;;;;;;5.88;3.63;;;25.00;78.60;;;;;;5020526;28;20164;-85
2023/09/07 07:58:49;;;;;;;6.35;3.53;;;25.20;78.70;;;;;;5034060;28;20034;-79
2023/09/07 08:01:17;;;;;;;6.47;3.92;;;25.20;78.00;;;;;;5016060;28;20480;-84
2023/09/07 08:03:43;;;;;;;4.40;3.25;;;25.20;78.20;;;;;;5034594;28;20116;-87
2023/09/07 08:06:09;;;;;;;8.50;3.33;;;25.30;77.90;;;;;;5034661;28;20447;-85
2023/09/07 08:08:35;;;;;;;3.55;2.92;;;25.40;77.80;;;;;;5037956;28;20033;-80
2023/09/07 08:11:05;;;;;;;6.57;3.53;;;25.50;77.80;;;;;;5040008;28;20474;-82
2023/09/07 08:13:34;;;;;;;6.93;3.28;;;25.70;77.60;;;;;;5038263;28;20038;-82
2023/09/07 08:16:03;;;;;;;4.97;3.28;;;25.80;78.00;;;;;;5037402;28;20485;-82
2023/09/07 08:18:32;;;;;;;4.72;3.20;;;25.80;76.20;;;;;;5019580;28;20033;-83
2023/09/07 08:20:58;;;;;;;5.72;3.22;;;25.90;77.20;;;;;;5021763;28;20474;-83
2023/09/07 08:23:23;;;;;;;2.80;2.33;;;26.10;77.00;;;;;;5042475;28;20110;-82
2023/09/07 08:25:51;;;;;;;9.60;4.10;;;26.10;75.70;;;;;;5044681;28;20049;-81
2023/09/07 08:28:18;;;;;;;5.32;3.20;;;26.20;75.90;;;;;;5040630;28;20068;-83
2023/09/07 08:30:44;;;;;;;6.88;3.28;;;26.30;75.80;;;;;;5034453;28;20034;-82
2023/09/07 08:33:10;;;;;;;4.57;3.30;;;26.30;75.90;;;;;;5039443;28;20072;-80
2023/09/07 08:35:41;;;;;;;6.57;2.88;;;26.40;75.70;;;;;;5041106;28;20044;-83
2023/09/07 08:38:08;;;;;;;9.63;3.13;;;26.50;75.70;;;;;;5039874;28;20121;-82
2023/09/07 08:40:35;;;;;;;15.05;4.70;;;26.70;76.10;;;;;;5037280;28;20057;-82
2023/09/07 08:43:05;;;;;;;6.13;3.60;;;26.70;76.50;;;;;;5019929;28;20087;-82
2023/09/07 08:45:36;;;;;;;7.93;3.97;;;26.80;76.50;;;;;;5041588;28;20045;-82
2023/09/07 08:48:03;;;;;;;7.82;3.30;;;26.90;75.90;;;;;;5037145;28;20051;-83
2023/09/07 08:50:30;;;;;;;5.85;3.60;;;27.00;74.40;;;;;;5037853;28;20024;-82
2023/09/07 08:52:59;;;;;;;4.20;3.45;;;27.10;76.70;;;;;;5036909;28;20029;-82
2023/09/07 08:55:25;;;;;;;8.82;3.85;;;27.20;76.60;;;;;;5041201;28;20064;-82
2023/09/07 08:57:51;;;;;;;5.45;3.55;;;27.30;73.70;;;;;;5036592;28;20485;-81
2023/09/07 09:00:19;;;;;;;6.97;3.53;;;27.30;74.10;;;;;;5053414;28;20029;-81
2023/09/07 09:02:48;;;;;;;4.07;3.03;;;27.20;73.80;;;;;;5053760;28;20037;-81
2023/09/07 09:05:15;;;;;;;3.08;2.70;;;27.40;73.80;;;;;;5055175;28;20065;-80
2023/09/07 09:07:41;;;;;;;4.05;3.25;;;27.60;74.10;;;;;;5054723;28;20033;-81
2023/09/07 09:10:08;;;;;;;5.60;3.08;;;27.70;73.20;;;;;;5055539;28;20024;-82
2023/09/07 09:12:34;;;;;;;6.55;3.22;;;27.80;73.90;;;;;;5054969;28;20033;-81
2023/09/07 09:15:03;;;;;;;7.60;3.50;;;28.00;73.70;;;;;;5053817;28;20037;-82
2023/09/07 09:17:28;;;;;;;4.78;3.13;;;28.00;73.40;;;;;;5053831;28;20037;-82
2023/09/07 09:19:54;;;;;;;6.57;2.92;;;28.00;73.30;;;;;;5054195;28;20162;-80
2023/09/07 09:22:20;;;;;;;5.00;2.83;;;28.10;72.80;;;;;;5054591;28;20443;-81
2023/09/07 09:24:49;;;;;;;6.07;3.03;;;28.20;72.60;;;;;;5054586;28;20542;-82
2023/09/07 09:27:15;;;;;;;4.88;2.63;;;28.30;72.30;;;;;;5055366;28;20037;-82
2023/09/07 09:29:41;;;;;;;7.20;2.30;;;28.40;71.70;;;;;;5056270;28;20478;-82
2023/09/07 09:32:07;;;;;;;4.82;2.78;;;28.50;73.30;;;;;;5057215;28;20040;-82
2023/09/07 09:34:37;;;;;;;4.38;3.13;;;28.70;72.70;;;;;;5056155;28;20017;-82
2023/09/07 09:37:04;;;;;;;6.95;3.00;;;28.80;70.60;;;;;;5057449;28;20041;-84
2023/09/07 09:39:29;;;;;;;4.20;2.65;;;28.90;71.00;;;;;;5057424;28;20021;-82
2023/09/07 09:41:56;;;;;;;2.80;2.22;;;29.00;71.30;;;;;;5056080;28;20091;-82
2023/09/07 09:44:25;;;;;;;9.45;2.60;;;29.10;71.10;;;;;;5056538;28;20057;-83
2023/09/07 09:46:56;;;;;;;5.38;2.88;;;29.20;70.00;;;;;;5056424;28;20469;-83
2023/09/07 09:49:22;;;;;;;4.45;2.65;;;29.30;70.60;;;;;;5039024;28;20135;-83
2023/09/07 09:51:50;;;;;;;4.35;2.10;;;29.30;69.90;;;;;;5038895;28;20048;-81
2023/09/07 09:54:17;;;;;;;3.95;2.20;;;29.20;68.70;;;;;;5056545;28;20029;-83
2023/09/07 09:56:44;;;;;;;6.93;2.03;;;29.30;68.50;;;;;;5056816;28;20454;-83
2023/09/07 09:59:11;;;;;;;4.28;1.80;;;29.30;68.00;;;;;;5039017;28;20037;-83
2023/09/07 10:01:50;;;;;;;2.50;2.03;;;29.40;68.00;;;;;;5057333;28;20108;-79
2023/09/07 10:04:17;;;;;;;3.63;2.05;;;29.50;68.00;;;;;;5056071;28;20050;-83
2023/09/07 10:06:58;;;;;;;2.97;2.22;;;29.60;66.70;;;;;;5056682;28;20044;-83
2023/09/07 10:09:28;;;;;;;4.70;2.30;;;29.70;66.70;;;;;;5038729;28;20470;-85
2023/09/07 10:11:54;;;;;;;6.13;2.25;;;29.80;66.30;;;;;;5056963;28;20514;-85
2023/09/07 10:14:20;;;;;;;4.03;2.15;;;29.80;67.20;;;;;;5057159;28;20041;-83
2023/09/07 10:17:03;;;;;;;3.28;2.13;;;29.80;67.30;;;;;;5039640;28;20059;-84
2023/09/07 10:19:29;;;;;;;3.75;1.98;;;30.00;68.20;;;;;;5039558;28;20071;-84
2023/09/07 10:21:56;;;;;;;3.72;2.20;;;30.10;66.70;;;;;;5056992;28;20404;-82
2023/09/07 10:24:25;;;;;;;4.20;2.38;;;30.20;65.20;;;;;;5039608;28;20056;-83
2023/09/07 10:27:02;;;;;;;2.40;2.10;;;30.20;64.70;;;;;;5057096;28;20513;-84
2023/09/07 10:29:28;;;;;;;4.03;2.42;;;30.30;66.20;;;;;;5055816;28;20454;-83
2023/09/07 10:31:54;;;;;;;5.70;2.00;;;30.40;65.00;;;;;;5056843;28;20037;-84
2023/09/07 10:34:22;;;;;;;2.78;2.03;;;30.50;65.30;;;;;;5056155;28;20099;-82
2023/09/07 10:36:48;;;;;;;4.07;2.45;;;30.60;66.20;;;;;;5062224;28;20088;-81
2023/09/07 10:39:13;;;;;;;5.05;1.88;;;30.60;65.00;;;;;;5065143;28;20033;-82
2023/09/07 10:41:43;;;;;;;4.32;2.67;;;30.60;65.20;;;;;;5061680;28;20114;-83
2023/09/07 10:44:10;;;;;;;7.78;2.38;;;30.60;65.10;;;;;;5057326;28;20537;-84
2023/09/07 10:46:37;;;;;;;4.10;2.08;;;30.70;66.20;;;;;;5061528;28;20021;-82
2023/09/07 10:49:06;;;;;;;5.10;2.20;;;30.80;65.90;;;;;;5058480;28;20036;-83
2023/09/07 10:51:32;;;;;;;4.82;2.08;;;30.90;65.70;;;;;;5068030;28;20060;-81
2023/09/07 10:53:58;;;;;;;2.03;1.83;;;31.00;65.30;;;;;;5063048;28;20036;-81
2023/09/07 10:56:26;;;;;;;3.03;2.17;;;31.10;66.70;;;;;;5060095;28;20049;-81
2023/09/07 10:58:54;;;;;;;3.90;1.90;;;31.20;64.80;;;;;;5044835;28;20036;-83
2023/09/07 11:01:20;;;;;;;5.78;2.00;;;31.20;63.50;;;;;;5065822;28;20108;-83
2023/09/07 11:03:46;;;;;;;3.28;1.80;;;31.30;61.00;;;;;;5047612;28;20025;-83
2023/09/07 11:06:20;;;;;;;3.13;1.80;;;31.40;60.80;;;;;;5058286;28;20035;-82
2023/09/07 11:08:46;;;;;;;4.13;1.70;;;31.40;60.00;;;;;;5040122;28;20389;-86
2023/09/07 11:11:13;;;;;;;3.83;1.83;;;31.40;61.10;;;;;;5037940;28;20215;-84
2023/09/07 11:13:39;;;;;;;5.35;2.25;;;31.50;60.50;;;;;;5056034;28;20036;-83
2023/09/07 11:16:08;;;;;;;4.25;1.98;;;31.50;61.10;;;;;;5056862;28;20037;-83
2023/09/07 11:18:37;;;;;;;2.80;1.60;;;31.50;61.40;;;;;;5037941;28;20037;-84
2023/09/07 11:21:04;;;;;;;6.53;1.88;;;31.60;60.70;;;;;;5038878;28;20041;-87
2023/09/07 11:23:40;;;;;;;2.80;1.92;;;31.70;60.90;;;;;;5040630;28;20065;-84
2023/09/07 11:26:07;;;;;;;4.20;2.08;;;31.70;61.60;;;;;;5056460;28;20079;-85
2023/09/07 11:28:33;;;;;;;2.88;1.98;;;31.70;60.30;;;;;;5055923;28;20112;-87
2023/09/07 11:30:59;;;;;;;4.50;2.00;;;31.70;60.30;;;;;;5055468;28;20075;-88
2023/09/07 11:33:25;;;;;;;2.60;1.90;;;31.80;60.20;;;;;;5055714;28;20025;-85
2023/09/07 11:35:54;;;;;;;3.47;1.85;;;31.80;58.90;;;;;;5056252;28;20021;-82
2023/09/07 11:38:20;;;;;;;2.35;1.52;;;31.90;59.70;;;;;;5055444;28;20037;-82
2023/09/07 11:40:46;;;;;;;4.38;2.00;;;31.80;59.70;;;;;;5037094;28;20029;-85
2023/09/07 11:43:13;;;;;;;2.35;1.48;;;31.90;59.20;;;;;;5056190;28;20033;-86
2023/09/07 11:45:40;;;;;;;4.55;1.92;;;31.90;58.60;;;;;;5040195;28;20343;-85
2023/09/07 11:48:08;;;;;;;6.53;1.98;;;32.00;60.40;;;;;;5038332;28;20040;-85
2023/09/07 11:50:35;;;;;;;3.05;1.60;;;32.10;59.40;;;;;;5056635;28;20385;-86
2023/09/07 11:53:01;;;;;;;2.10;1.70;;;32.10;59.50;;;;;;5056744;28;20064;-86
2023/09/07 11:55:27;;;;;;;6.22;2.00;;;32.10;58.70;;;;;;5054849;28;20040;-85
2023/09/07 11:57:53;;;;;;;2.25;1.70;;;32.20;58.90;;;;;;5054727;28;20089;-86
2023/09/07 12:00:19;;;;;;;3.28;1.95;;;32.20;59.10;;;;;;5054716;28;20060;-85
2023/09/07 12:02:44;;;;;;;2.20;1.70;;;32.20;59.00;;;;;;5054944;28;20098;-85
2023/09/07 12:05:14;;;;;;;3.47;1.70;;;32.30;59.10;;;;;;5053971;28;20032;-84
2023/09/07 12:07:40;;;;;;;3.83;2.13;;;32.30;57.40;;;;;;5054304;28;20025;-85
2023/09/07 12:10:10;;;;;;;3.75;1.70;;;32.10;57.40;;;;;;5058695;28;20033;-89
2023/09/07 12:12:42;;;;;;;2.65;1.77;;;32.20;58.90;;;;;;5059889;28;20347;-88
2023/09/07 12:15:08;;;;;;;5.65;1.90;;;32.40;59.40;;;;;;5057033;28;20049;-84
2023/09/07 12:17:34;;;;;;;3.08;1.65;;;32.60;59.00;;;;;;5054890;28;20159;-84
2023/09/07 12:20:00;;;;;;;2.75;2.03;;;32.60;58.00;;;;;;5056151;28;20033;-86
2023/09/07 12:22:27;;;;;;;3.53;1.75;;;32.70;58.00;;;;;;5056629;28;20029;-86
2023/09/07 12:24:53;;;;;;;3.53;1.67;;;32.70;58.10;;;;;;5058392;28;20036;-84
2023/09/07 12:27:19;;;;;;;4.63;1.88;;;32.70;58.10;;;;;;5039235;28;20040;-83
2023/09/07 12:29:45;;;;;;;2.92;2.03;;;32.70;57.00;;;;;;5038004;28;20175;-85
2023/09/07 12:32:11;;;;;;;3.55;1.80;;;32.90;58.10;;;;;;5055860;28;20091;-84
2023/09/07 12:34:37;;;;;;;3.78;1.67;;;32.80;57.90;;;;;;5054577;28;20040;-85
2023/09/07 12:37:04;;;;;;;2.08;1.88;;;32.90;57.50;;;;;;5054765;28;20104;-85
2023/09/07 12:39:30;;;;;;;4.20;1.88;;;32.90;58.60;;;;;;5055185;28;20029;-82
2023/09/07 12:41:56;;;;;;;2.05;1.83;;;32.90;57.10;;;;;;5054989;28;20025;-84
2023/09/07 12:44:21;;;;;;;2.47;1.70;;;32.90;57.60;;;;;;5056587;28;20029;-86